sensor_id;sensor_type;location;lat;lon;timestamp;P1;durP1;ratioP1;P2;durP2;ratioP2
36709;SDS011;22694;51.040;3.684;2022-12-07T00:01:09;3.10;;;2.70;;
36709;SDS011;22694;51.040;3.684;2022-12-07T00:03:40;3.60;;;2.60;;
36709;SDS011;22694;51.040;3.684;2022-12-07T00:06:08;3.63;;;2.40;;
36709;SDS011;22694;51.040;3.684;2022-12-07T00:08:35;3.35;;;2.58;;
36709;SDS011;22694;51.040;3.684;2022-12-07T00:13:28;2.60;;;2.17;;
36709;SDS011;22694;51.040;3.684;2022-12-07T00:15:55;3.42;;;2.55;;
36709;SDS011;22694;51.040;3.684;2022-12-07T00:18:20;3.28;;;2.00;;
36709;SDS011;22694;51.040;3.684;2022-12-07T00:20:46;2.10;;;1.90;;
36709;SDS011;22694;51.040;3.684;2022-12-07T00:23:11;4.32;;;2.58;;
36709;SDS011;22694;51.040;3.684;2022-12-07T00:25:37;2.45;;;1.90;;
36709;SDS011;22694;51.040;3.684;2022-12-07T00:28:02;2.13;;;1.77;;
36709;SDS011;22694;51.040;3.684;2022-12-07T00:30:28;2.97;;;1.80;;
36709;SDS011;22694;51.040;3.684;2022-12-07T00:32:54;1.85;;;1.65;;
36709;SDS011;22694;51.040;3.684;2022-12-07T00:35:20;2.22;;;2.03;;
36709;SDS011;22694;51.040;3.684;2022-12-07T00:37:45;1.75;;;1.65;;
36709;SDS011;22694;51.040;3.684;2022-12-07T00:40:11;2.63;;;1.70;;
36709;SDS011;22694;51.040;3.684;2022-12-07T00:42:37;2.97;;;1.80;;
36709;SDS011;22694;51.040;3.684;2022-12-07T00:45:02;2.28;;;1.80;;
36709;SDS011;22694;51.040;3.684;2022-12-07T00:47:28;1.77;;;1.30;;
36709;SDS011;22694;51.040;3.684;2022-12-07T00:49:54;1.60;;;1.30;;
36709;SDS011;22694;51.040;3.684;2022-12-07T00:52:19;2.13;;;1.58;;
36709;SDS011;22694;51.040;3.684;2022-12-07T00:54:45;1.98;;;1.48;;
36709;SDS011;22694;51.040;3.684;2022-12-07T00:57:11;1.20;;;1.10;;
36709;SDS011;22694;51.040;3.684;2022-12-07T00:59:36;2.83;;;1.45;;
36709;SDS011;22694;51.040;3.684;2022-12-07T01:02:02;3.72;;;1.40;;
36709;SDS011;22694;51.040;3.684;2022-12-07T01:04:27;2.45;;;1.10;;
36709;SDS011;22694;51.040;3.684;2022-12-07T01:06:54;4.20;;;1.50;;
36709;SDS011;22694;51.040;3.684;2022-12-07T01:09:20;3.15;;;1.30;;
36709;SDS011;22694;51.040;3.684;2022-12-07T01:11:45;1.67;;;1.30;;
36709;SDS011;22694;51.040;3.684;2022-12-07T01:14:11;2.53;;;1.50;;
36709;SDS011;22694;51.040;3.684;2022-12-07T01:16:38;1.88;;;1.02;;
36709;SDS011;22694;51.040;3.684;2022-12-07T01:19:04;1.45;;;0.98;;
36709;SDS011;22694;51.040;3.684;2022-12-07T01:21:33;1.90;;;1.40;;
36709;SDS011;22694;51.040;3.684;2022-12-07T01:24:01;2.38;;;1.00;;
36709;SDS011;22694;51.040;3.684;2022-12-07T01:26:27;2.70;;;1.20;;
36709;SDS011;22694;51.040;3.684;2022-12-07T01:28:52;1.77;;;1.15;;
36709;SDS011;22694;51.040;3.684;2022-12-07T01:31:20;2.30;;;1.30;;
36709;SDS011;22694;51.040;3.684;2022-12-07T01:33:49;2.03;;;1.35;;
36709;SDS011;22694;51.040;3.684;2022-12-07T01:36:22;1.58;;;1.20;;
36709;SDS011;22694;51.040;3.684;2022-12-07T01:38:50;1.25;;;1.00;;
36709;SDS011;22694;51.040;3.684;2022-12-07T01:41:19;1.73;;;1.15;;
36709;SDS011;22694;51.040;3.684;2022-12-07T01:44:09;1.63;;;1.10;;
36709;SDS011;22694;51.040;3.684;2022-12-07T01:46:42;1.65;;;1.15;;
36709;SDS011;22694;51.040;3.684;2022-12-07T01:49:10;1.27;;;1.08;;
36709;SDS011;22694;51.040;3.684;2022-12-07T01:51:40;1.63;;;1.00;;
36709;SDS011;22694;51.040;3.684;2022-12-07T01:54:08;1.23;;;0.93;;
36709;SDS011;22694;51.040;3.684;2022-12-07T01:56:36;1.20;;;1.10;;
36709;SDS011;22694;51.040;3.684;2022-12-07T01:59:03;1.27;;;0.93;;
36709;SDS011;22694;51.040;3.684;2022-12-07T02:01:29;2.38;;;1.10;;
36709;SDS011;22694;51.040;3.684;2022-12-07T02:03:55;2.10;;;1.48;;
36709;SDS011;22694;51.040;3.684;2022-12-07T02:06:22;3.15;;;0.90;;
36709;SDS011;22694;51.040;3.684;2022-12-07T02:08:49;1.52;;;1.20;;
36709;SDS011;22694;51.040;3.684;2022-12-07T02:11:15;1.02;;;0.80;;
36709;SDS011;22694;51.040;3.684;2022-12-07T02:13:42;1.85;;;1.02;;
36709;SDS011;22694;51.040;3.684;2022-12-07T02:16:28;1.00;;;0.75;;
36709;SDS011;22694;51.040;3.684;2022-12-07T02:21:54;1.65;;;1.10;;
36709;SDS011;22694;51.040;3.684;2022-12-07T02:24:48;2.85;;;1.00;;
36709;SDS011;22694;51.040;3.684;2022-12-07T02:30:06;2.03;;;1.15;;
36709;SDS011;22694;51.040;3.684;2022-12-07T02:35:33;1.65;;;1.30;;
36709;SDS011;22694;51.040;3.684;2022-12-07T02:40:50;1.00;;;1.00;;
36709;SDS011;22694;51.040;3.684;2022-12-07T02:43:24;1.50;;;1.38;;
36709;SDS011;22694;51.040;3.684;2022-12-07T02:45:53;1.75;;;1.30;;
36709;SDS011;22694;51.040;3.684;2022-12-07T02:48:23;1.40;;;1.15;;
36709;SDS011;22694;51.040;3.684;2022-12-07T02:50:52;1.77;;;1.30;;
36709;SDS011;22694;51.040;3.684;2022-12-07T02:53:35;2.03;;;1.25;;
36709;SDS011;22694;51.040;3.684;2022-12-07T02:56:07;1.92;;;1.20;;
36709;SDS011;22694;51.040;3.684;2022-12-07T03:04:28;1.52;;;1.42;;
36709;SDS011;22694;51.040;3.684;2022-12-07T03:10:19;2.28;;;1.27;;
36709;SDS011;22694;51.040;3.684;2022-12-07T03:15:46;2.90;;;1.60;;
36709;SDS011;22694;51.040;3.684;2022-12-07T03:18:18;1.40;;;1.27;;
36709;SDS011;22694;51.040;3.684;2022-12-07T03:20:48;2.17;;;1.13;;
36709;SDS011;22694;51.040;3.684;2022-12-07T03:23:16;2.53;;;1.30;;
36709;SDS011;22694;51.040;3.684;2022-12-07T03:25:45;1.70;;;1.40;;
36709;SDS011;22694;51.040;3.684;2022-12-07T03:28:16;2.70;;;1.55;;
36709;SDS011;22694;51.040;3.684;2022-12-07T03:30:49;1.35;;;1.23;;
36709;SDS011;22694;51.040;3.684;2022-12-07T03:33:29;1.23;;;1.05;;
36709;SDS011;22694;51.040;3.684;2022-12-07T03:36:06;1.45;;;1.17;;
36709;SDS011;22694;51.040;3.684;2022-12-07T03:38:47;2.67;;;1.30;;
36709;SDS011;22694;51.040;3.684;2022-12-07T03:43:46;1.40;;;1.30;;
36709;SDS011;22694;51.040;3.684;2022-12-07T03:48:42;9.27;;;1.92;;
36709;SDS011;22694;51.040;3.684;2022-12-07T03:51:18;1.17;;;1.08;;
36709;SDS011;22694;51.040;3.684;2022-12-07T03:53:51;1.95;;;1.15;;
36709;SDS011;22694;51.040;3.684;2022-12-07T03:56:24;3.35;;;1.30;;
36709;SDS011;22694;51.040;3.684;2022-12-07T03:58:50;3.90;;;1.10;;
36709;SDS011;22694;51.040;3.684;2022-12-07T04:01:17;1.23;;;1.10;;
36709;SDS011;22694;51.040;3.684;2022-12-07T04:03:43;2.45;;;1.83;;
36709;SDS011;22694;51.040;3.684;2022-12-07T04:06:09;3.00;;;1.20;;
36709;SDS011;22694;51.040;3.684;2022-12-07T04:08:35;1.90;;;1.00;;
36709;SDS011;22694;51.040;3.684;2022-12-07T04:11:00;1.55;;;1.02;;
36709;SDS011;22694;51.040;3.684;2022-12-07T04:13:26;1.30;;;0.90;;
36709;SDS011;22694;51.040;3.684;2022-12-07T04:15:52;1.73;;;1.05;;
36709;SDS011;22694;51.040;3.684;2022-12-07T04:18:18;2.38;;;0.95;;
36709;SDS011;22694;51.040;3.684;2022-12-07T04:20:45;1.00;;;0.90;;
36709;SDS011;22694;51.040;3.684;2022-12-07T04:23:10;3.17;;;1.23;;
36709;SDS011;22694;51.040;3.684;2022-12-07T04:25:36;1.65;;;0.93;;
36709;SDS011;22694;51.040;3.684;2022-12-07T04:28:02;3.50;;;1.15;;
36709;SDS011;22694;51.040;3.684;2022-12-07T04:30:27;2.35;;;0.95;;
36709;SDS011;22694;51.040;3.684;2022-12-07T04:32:53;2.47;;;1.20;;
36709;SDS011;22694;51.040;3.684;2022-12-07T04:35:18;1.50;;;1.00;;
36709;SDS011;22694;51.040;3.684;2022-12-07T04:37:45;3.42;;;1.00;;
36709;SDS011;22694;51.040;3.684;2022-12-07T04:40:11;2.00;;;0.77;;
36709;SDS011;22694;51.040;3.684;2022-12-07T04:42:39;3.78;;;1.23;;
36709;SDS011;22694;51.040;3.684;2022-12-07T04:45:05;2.28;;;0.98;;
36709;SDS011;22694;51.040;3.684;2022-12-07T04:47:31;2.33;;;0.90;;
36709;SDS011;22694;51.040;3.684;2022-12-07T04:49:56;1.92;;;0.80;;
36709;SDS011;22694;51.040;3.684;2022-12-07T04:52:22;1.65;;;1.10;;
36709;SDS011;22694;51.040;3.684;2022-12-07T04:54:48;3.13;;;0.95;;
36709;SDS011;22694;51.040;3.684;2022-12-07T04:57:13;2.17;;;1.05;;
36709;SDS011;22694;51.040;3.684;2022-12-07T04:59:39;3.08;;;1.10;;
36709;SDS011;22694;51.040;3.684;2022-12-07T05:02:04;2.72;;;1.05;;
36709;SDS011;22694;51.040;3.684;2022-12-07T05:04:30;1.85;;;0.73;;
36709;SDS011;22694;51.040;3.684;2022-12-07T05:06:56;2.28;;;1.02;;
36709;SDS011;22694;51.040;3.684;2022-12-07T05:09:21;1.58;;;0.90;;
36709;SDS011;22694;51.040;3.684;2022-12-07T05:11:47;2.45;;;0.90;;
36709;SDS011;22694;51.040;3.684;2022-12-07T05:14:14;1.60;;;0.98;;
36709;SDS011;22694;51.040;3.684;2022-12-07T05:16:46;2.78;;;0.75;;
36709;SDS011;22694;51.040;3.684;2022-12-07T05:19:13;1.38;;;0.88;;
36709;SDS011;22694;51.040;3.684;2022-12-07T05:21:39;1.92;;;0.98;;
36709;SDS011;22694;51.040;3.684;2022-12-07T05:24:06;1.95;;;0.77;;
36709;SDS011;22694;51.040;3.684;2022-12-07T05:26:32;1.77;;;0.75;;
36709;SDS011;22694;51.040;3.684;2022-12-07T05:28:59;1.13;;;0.77;;
36709;SDS011;22694;51.040;3.684;2022-12-07T05:31:25;1.15;;;0.68;;
36709;SDS011;22694;51.040;3.684;2022-12-07T05:33:51;2.38;;;0.88;;
36709;SDS011;22694;51.040;3.684;2022-12-07T05:36:17;1.95;;;0.77;;
36709;SDS011;22694;51.040;3.684;2022-12-07T05:38:43;1.73;;;0.90;;
36709;SDS011;22694;51.040;3.684;2022-12-07T05:41:09;1.13;;;0.60;;
36709;SDS011;22694;51.040;3.684;2022-12-07T05:44:00;3.00;;;1.00;;
36709;SDS011;22694;51.040;3.684;2022-12-07T05:46:26;1.15;;;0.50;;
36709;SDS011;22694;51.040;3.684;2022-12-07T05:48:52;0.88;;;0.60;;
36709;SDS011;22694;51.040;3.684;2022-12-07T05:51:18;0.73;;;0.60;;
36709;SDS011;22694;51.040;3.684;2022-12-07T05:53:44;1.23;;;0.63;;
36709;SDS011;22694;51.040;3.684;2022-12-07T05:56:09;3.35;;;0.82;;
36709;SDS011;22694;51.040;3.684;2022-12-07T05:58:35;1.45;;;0.73;;
36709;SDS011;22694;51.040;3.684;2022-12-07T06:01:19;1.55;;;0.63;;
36709;SDS011;22694;51.040;3.684;2022-12-07T06:03:45;1.63;;;0.75;;
36709;SDS011;22694;51.040;3.684;2022-12-07T06:06:10;2.10;;;0.70;;
36709;SDS011;22694;51.040;3.684;2022-12-07T06:08:36;0.45;;;0.45;;
36709;SDS011;22694;51.040;3.684;2022-12-07T06:11:02;1.02;;;0.68;;
36709;SDS011;22694;51.040;3.684;2022-12-07T06:13:46;1.20;;;0.60;;
36709;SDS011;22694;51.040;3.684;2022-12-07T06:16:11;1.00;;;0.60;;
36709;SDS011;22694;51.040;3.684;2022-12-07T06:18:37;0.73;;;0.40;;
36709;SDS011;22694;51.040;3.684;2022-12-07T06:21:02;1.92;;;0.43;;
36709;SDS011;22694;51.040;3.684;2022-12-07T06:23:28;1.00;;;0.70;;
36709;SDS011;22694;51.040;3.684;2022-12-07T06:25:54;1.38;;;0.50;;
36709;SDS011;22694;51.040;3.684;2022-12-07T06:28:19;1.10;;;0.52;;
36709;SDS011;22694;51.040;3.684;2022-12-07T06:30:45;0.45;;;0.45;;
36709;SDS011;22694;51.040;3.684;2022-12-07T06:33:10;1.13;;;0.57;;
36709;SDS011;22694;51.040;3.684;2022-12-07T06:35:36;1.75;;;0.50;;
36709;SDS011;22694;51.040;3.684;2022-12-07T06:38:02;0.57;;;0.52;;
36709;SDS011;22694;51.040;3.684;2022-12-07T06:40:27;2.17;;;0.60;;
36709;SDS011;22694;51.040;3.684;2022-12-07T06:42:53;1.27;;;0.50;;
36709;SDS011;22694;51.040;3.684;2022-12-07T06:45:18;1.35;;;0.80;;
36709;SDS011;22694;51.040;3.684;2022-12-07T06:47:44;0.93;;;0.50;;
36709;SDS011;22694;51.040;3.684;2022-12-07T06:50:10;0.93;;;0.50;;
36709;SDS011;22694;51.040;3.684;2022-12-07T06:52:35;0.75;;;0.47;;
36709;SDS011;22694;51.040;3.684;2022-12-07T06:55:01;0.90;;;0.50;;
36709;SDS011;22694;51.040;3.684;2022-12-07T06:57:27;0.90;;;0.50;;
36709;SDS011;22694;51.040;3.684;2022-12-07T06:59:52;2.22;;;1.05;;
36709;SDS011;22694;51.040;3.684;2022-12-07T07:02:18;2.33;;;0.63;;
36709;SDS011;22694;51.040;3.684;2022-12-07T07:04:43;3.03;;;0.80;;
36709;SDS011;22694;51.040;3.684;2022-12-07T07:07:09;0.70;;;0.70;;
36709;SDS011;22694;51.040;3.684;2022-12-07T07:09:35;1.25;;;0.50;;
36709;SDS011;22694;51.040;3.684;2022-12-07T07:12:00;0.70;;;0.60;;
36709;SDS011;22694;51.040;3.684;2022-12-07T07:14:26;1.40;;;0.80;;
36709;SDS011;22694;51.040;3.684;2022-12-07T07:16:52;0.80;;;0.80;;
36709;SDS011;22694;51.040;3.684;2022-12-07T07:19:18;2.25;;;1.02;;
36709;SDS011;22694;51.040;3.684;2022-12-07T07:21:43;1.20;;;0.65;;
36709;SDS011;22694;51.040;3.684;2022-12-07T07:24:09;1.27;;;0.65;;
36709;SDS011;22694;51.040;3.684;2022-12-07T07:26:35;2.33;;;0.80;;
36709;SDS011;22694;51.040;3.684;2022-12-07T07:29:00;1.00;;;0.90;;
36709;SDS011;22694;51.040;3.684;2022-12-07T07:31:26;0.90;;;0.80;;
36709;SDS011;22694;51.040;3.684;2022-12-07T07:33:51;2.13;;;0.98;;
36709;SDS011;22694;51.040;3.684;2022-12-07T07:36:17;1.95;;;1.00;;
36709;SDS011;22694;51.040;3.684;2022-12-07T07:38:43;2.35;;;0.80;;
36709;SDS011;22694;51.040;3.684;2022-12-07T07:41:08;1.30;;;0.80;;
36709;SDS011;22694;51.040;3.684;2022-12-07T07:43:34;2.30;;;0.95;;
36709;SDS011;22694;51.040;3.684;2022-12-07T07:45:59;1.52;;;0.90;;
36709;SDS011;22694;51.040;3.684;2022-12-07T07:48:25;2.90;;;0.95;;
36709;SDS011;22694;51.040;3.684;2022-12-07T07:50:51;1.40;;;1.08;;
36709;SDS011;22694;51.040;3.684;2022-12-07T07:53:17;5.85;;;1.17;;
36709;SDS011;22694;51.040;3.684;2022-12-07T07:55:50;2.33;;;0.50;;
36709;SDS011;22694;51.040;3.684;2022-12-07T07:58:19;0.40;;;0.40;;
36709;SDS011;22694;51.040;3.684;2022-12-07T08:00:45;2.35;;;0.60;;
36709;SDS011;22694;51.040;3.684;2022-12-07T08:03:11;1.65;;;0.70;;
36709;SDS011;22694;51.040;3.684;2022-12-07T08:05:37;1.83;;;0.70;;
36709;SDS011;22694;51.040;3.684;2022-12-07T08:08:03;1.40;;;0.55;;
36709;SDS011;22694;51.040;3.684;2022-12-07T08:10:28;2.65;;;0.93;;
36709;SDS011;22694;51.040;3.684;2022-12-07T08:12:54;3.88;;;1.15;;
36709;SDS011;22694;51.040;3.684;2022-12-07T08:15:39;1.92;;;0.70;;
36709;SDS011;22694;51.040;3.684;2022-12-07T08:18:05;4.35;;;0.98;;
36709;SDS011;22694;51.040;3.684;2022-12-07T08:20:32;1.15;;;0.80;;
36709;SDS011;22694;51.040;3.684;2022-12-07T08:22:58;2.72;;;0.90;;
36709;SDS011;22694;51.040;3.684;2022-12-07T08:25:24;2.72;;;0.90;;
36709;SDS011;22694;51.040;3.684;2022-12-07T08:27:50;1.67;;;0.73;;
36709;SDS011;22694;51.040;3.684;2022-12-07T08:30:16;1.50;;;0.73;;
36709;SDS011;22694;51.040;3.684;2022-12-07T08:32:43;1.75;;;1.02;;
36709;SDS011;22694;51.040;3.684;2022-12-07T08:35:10;1.88;;;0.60;;
36709;SDS011;22694;51.040;3.684;2022-12-07T08:37:36;1.75;;;1.00;;
36709;SDS011;22694;51.040;3.684;2022-12-07T08:40:02;1.20;;;0.90;;
36709;SDS011;22694;51.040;3.684;2022-12-07T08:42:28;1.58;;;0.70;;
36709;SDS011;22694;51.040;3.684;2022-12-07T08:45:02;0.82;;;0.80;;
36709;SDS011;22694;51.040;3.684;2022-12-07T08:47:30;1.63;;;0.73;;
36709;SDS011;22694;51.040;3.684;2022-12-07T08:49:56;1.92;;;0.90;;
36709;SDS011;22694;51.040;3.684;2022-12-07T08:52:28;1.42;;;0.77;;
36709;SDS011;22694;51.040;3.684;2022-12-07T08:54:57;2.22;;;1.20;;
36709;SDS011;22694;51.040;3.684;2022-12-07T08:57:24;1.33;;;0.70;;
36709;SDS011;22694;51.040;3.684;2022-12-07T08:59:50;2.20;;;1.00;;
36709;SDS011;22694;51.040;3.684;2022-12-07T09:02:15;3.90;;;1.08;;
36709;SDS011;22694;51.040;3.684;2022-12-07T09:04:41;3.95;;;1.02;;
36709;SDS011;22694;51.040;3.684;2022-12-07T09:07:06;2.00;;;1.00;;
36709;SDS011;22694;51.040;3.684;2022-12-07T09:09:32;1.75;;;1.15;;
36709;SDS011;22694;51.040;3.684;2022-12-07T09:11:58;1.92;;;1.35;;
36709;SDS011;22694;51.040;3.684;2022-12-07T09:14:23;2.10;;;1.10;;
36709;SDS011;22694;51.040;3.684;2022-12-07T09:16:49;4.07;;;0.95;;
36709;SDS011;22694;51.040;3.684;2022-12-07T09:19:15;3.28;;;1.08;;
36709;SDS011;22694;51.040;3.684;2022-12-07T09:21:41;2.22;;;0.82;;
36709;SDS011;22694;51.040;3.684;2022-12-07T09:24:06;3.35;;;1.10;;
36709;SDS011;22694;51.040;3.684;2022-12-07T09:26:32;1.98;;;0.82;;
36709;SDS011;22694;51.040;3.684;2022-12-07T09:29:00;1.88;;;1.10;;
36709;SDS011;22694;51.040;3.684;2022-12-07T09:31:26;2.22;;;1.15;;
36709;SDS011;22694;51.040;3.684;2022-12-07T09:33:56;2.65;;;1.10;;
36709;SDS011;22694;51.040;3.684;2022-12-07T09:36:23;2.25;;;1.05;;
36709;SDS011;22694;51.040;3.684;2022-12-07T09:38:51;2.28;;;1.23;;
36709;SDS011;22694;51.040;3.684;2022-12-07T09:41:17;2.63;;;1.05;;
36709;SDS011;22694;51.040;3.684;2022-12-07T09:43:43;1.50;;;1.13;;
36709;SDS011;22694;51.040;3.684;2022-12-07T09:46:12;1.83;;;1.20;;
36709;SDS011;22694;51.040;3.684;2022-12-07T09:48:41;2.47;;;1.20;;
36709;SDS011;22694;51.040;3.684;2022-12-07T09:51:18;2.72;;;1.10;;
36709;SDS011;22694;51.040;3.684;2022-12-07T09:53:45;3.53;;;1.20;;
36709;SDS011;22694;51.040;3.684;2022-12-07T09:56:13;1.98;;;1.00;;
36709;SDS011;22694;51.040;3.684;2022-12-07T09:58:40;1.67;;;1.13;;
36709;SDS011;22694;51.040;3.684;2022-12-07T10:03:32;2.60;;;1.30;;
36709;SDS011;22694;51.040;3.684;2022-12-07T10:06:00;3.85;;;0.93;;
36709;SDS011;22694;51.040;3.684;2022-12-07T10:08:26;1.52;;;1.10;;
36709;SDS011;22694;51.040;3.684;2022-12-07T10:10:52;1.83;;;1.08;;
36709;SDS011;22694;51.040;3.684;2022-12-07T10:13:43;1.08;;;0.88;;
36709;SDS011;22694;51.040;3.684;2022-12-07T10:18:51;2.50;;;1.00;;
36709;SDS011;22694;51.040;3.684;2022-12-07T10:21:19;1.10;;;1.00;;
36709;SDS011;22694;51.040;3.684;2022-12-07T10:26:33;2.35;;;1.13;;
36709;SDS011;22694;51.040;3.684;2022-12-07T10:29:01;2.30;;;0.98;;
36709;SDS011;22694;51.040;3.684;2022-12-07T10:31:36;3.30;;;1.10;;
36709;SDS011;22694;51.040;3.684;2022-12-07T10:34:08;1.80;;;1.00;;
36709;SDS011;22694;51.040;3.684;2022-12-07T10:36:49;2.30;;;1.00;;
36709;SDS011;22694;51.040;3.684;2022-12-07T10:39:19;1.38;;;0.90;;
36709;SDS011;22694;51.040;3.684;2022-12-07T10:44:44;3.10;;;1.38;;
36709;SDS011;22694;51.040;3.684;2022-12-07T10:47:22;2.97;;;1.38;;
36709;SDS011;22694;51.040;3.684;2022-12-07T11:00:55;1.95;;;1.27;;
36709;SDS011;22694;51.040;3.684;2022-12-07T11:04:14;2.40;;;0.95;;
36709;SDS011;22694;51.040;3.684;2022-12-07T11:09:25;2.20;;;0.80;;
36709;SDS011;22694;51.040;3.684;2022-12-07T11:14:51;1.70;;;0.90;;
36709;SDS011;22694;51.040;3.684;2022-12-07T11:23:10;2.92;;;1.20;;
36709;SDS011;22694;51.040;3.684;2022-12-07T11:28:22;3.08;;;1.42;;
36709;SDS011;22694;51.040;3.684;2022-12-07T11:33:51;2.45;;;1.00;;
36709;SDS011;22694;51.040;3.684;2022-12-07T11:39:02;1.67;;;0.80;;
36709;SDS011;22694;51.040;3.684;2022-12-07T11:41:34;2.33;;;0.82;;
36709;SDS011;22694;51.040;3.684;2022-12-07T11:44:12;1.30;;;0.85;;
36709;SDS011;22694;51.040;3.684;2022-12-07T11:47:45;1.52;;;0.90;;
36709;SDS011;22694;51.040;3.684;2022-12-07T11:49:47;2.28;;;0.98;;
36709;SDS011;22694;51.040;3.684;2022-12-07T11:52:22;1.25;;;0.70;;
36709;SDS011;22694;51.040;3.684;2022-12-07T11:54:55;1.40;;;0.82;;
36709;SDS011;22694;51.040;3.684;2022-12-07T11:57:35;3.40;;;1.00;;
36709;SDS011;22694;51.040;3.684;2022-12-07T12:00:08;2.95;;;1.05;;
36709;SDS011;22694;51.040;3.684;2022-12-07T12:02:46;2.20;;;0.80;;
36709;SDS011;22694;51.040;3.684;2022-12-07T12:05:21;1.63;;;0.80;;
36709;SDS011;22694;51.040;3.684;2022-12-07T12:08:00;2.35;;;1.23;;
36709;SDS011;22694;51.040;3.684;2022-12-07T12:13:20;1.15;;;0.80;;
36709;SDS011;22694;51.040;3.684;2022-12-07T12:16:01;1.25;;;0.90;;
36709;SDS011;22694;51.040;3.684;2022-12-07T12:18:47;2.88;;;0.95;;
36709;SDS011;22694;51.040;3.684;2022-12-07T12:21:35;1.23;;;0.77;;
36709;SDS011;22694;51.040;3.684;2022-12-07T12:24:06;2.03;;;1.00;;
36709;SDS011;22694;51.040;3.684;2022-12-07T12:26:39;2.38;;;0.95;;
36709;SDS011;22694;51.040;3.684;2022-12-07T12:29:23;2.58;;;0.73;;
36709;SDS011;22694;51.040;3.684;2022-12-07T12:32:05;0.93;;;0.63;;
36709;SDS011;22694;51.040;3.684;2022-12-07T12:35:00;1.60;;;1.08;;
36709;SDS011;22694;51.040;3.684;2022-12-07T12:37:45;0.85;;;0.55;;
36709;SDS011;22694;51.040;3.684;2022-12-07T12:45:22;1.63;;;0.70;;
36709;SDS011;22694;51.040;3.684;2022-12-07T12:47:53;1.90;;;0.90;;
36709;SDS011;22694;51.040;3.684;2022-12-07T12:52:56;0.90;;;0.77;;
36709;SDS011;22694;51.040;3.684;2022-12-07T13:00:45;1.40;;;0.90;;
36709;SDS011;22694;51.040;3.684;2022-12-07T13:03:28;1.75;;;0.65;;
36709;SDS011;22694;51.040;3.684;2022-12-07T13:08:40;1.08;;;0.80;;
36709;SDS011;22694;51.040;3.684;2022-12-07T13:11:20;3.30;;;0.90;;
36709;SDS011;22694;51.040;3.684;2022-12-07T13:22:31;2.67;;;0.73;;
36709;SDS011;22694;51.040;3.684;2022-12-07T13:25:12;4.40;;;0.93;;
36709;SDS011;22694;51.040;3.684;2022-12-07T13:27:57;4.20;;;1.05;;
36709;SDS011;22694;51.040;3.684;2022-12-07T13:30:26;1.55;;;0.75;;
36709;SDS011;22694;51.040;3.684;2022-12-07T13:32:54;2.40;;;1.17;;
36709;SDS011;22694;51.040;3.684;2022-12-07T13:35:34;3.53;;;0.90;;
36709;SDS011;22694;51.040;3.684;2022-12-07T13:38:05;0.93;;;0.68;;
36709;SDS011;22694;51.040;3.684;2022-12-07T13:40:41;4.28;;;0.85;;
36709;SDS011;22694;51.040;3.684;2022-12-07T13:43:14;4.15;;;0.80;;
36709;SDS011;22694;51.040;3.684;2022-12-07T13:45:41;2.25;;;0.73;;
36709;SDS011;22694;51.040;3.684;2022-12-07T13:48:14;0.88;;;0.60;;
36709;SDS011;22694;51.040;3.684;2022-12-07T13:50:53;0.77;;;0.57;;
36709;SDS011;22694;51.040;3.684;2022-12-07T13:53:20;1.13;;;0.80;;
36709;SDS011;22694;51.040;3.684;2022-12-07T13:55:47;2.55;;;1.10;;
36709;SDS011;22694;51.040;3.684;2022-12-07T13:58:13;1.50;;;0.63;;
36709;SDS011;22694;51.040;3.684;2022-12-07T14:00:39;1.73;;;0.80;;
36709;SDS011;22694;51.040;3.684;2022-12-07T14:05:38;1.33;;;0.70;;
36709;SDS011;22694;51.040;3.684;2022-12-07T14:08:06;1.27;;;0.70;;
36709;SDS011;22694;51.040;3.684;2022-12-07T14:15:44;2.60;;;0.90;;
36709;SDS011;22694;51.040;3.684;2022-12-07T14:18:28;1.75;;;0.77;;
36709;SDS011;22694;51.040;3.684;2022-12-07T14:21:05;0.95;;;0.55;;
36709;SDS011;22694;51.040;3.684;2022-12-07T14:23:39;0.73;;;0.65;;
36709;SDS011;22694;51.040;3.684;2022-12-07T14:26:16;4.50;;;0.50;;
36709;SDS011;22694;51.040;3.684;2022-12-07T14:28:45;3.75;;;1.00;;
36709;SDS011;22694;51.040;3.684;2022-12-07T14:31:12;2.20;;;0.70;;
36709;SDS011;22694;51.040;3.684;2022-12-07T14:33:42;6.43;;;1.73;;
36709;SDS011;22694;51.040;3.684;2022-12-07T14:36:09;4.43;;;1.33;;
36709;SDS011;22694;51.040;3.684;2022-12-07T14:38:37;4.13;;;1.00;;
36709;SDS011;22694;51.040;3.684;2022-12-07T14:41:03;3.65;;;1.10;;
36709;SDS011;22694;51.040;3.684;2022-12-07T14:43:49;5.28;;;1.25;;
36709;SDS011;22694;51.040;3.684;2022-12-07T14:46:15;4.13;;;1.30;;
36709;SDS011;22694;51.040;3.684;2022-12-07T14:48:41;2.38;;;0.68;;
36709;SDS011;22694;51.040;3.684;2022-12-07T14:51:07;1.90;;;0.98;;
36709;SDS011;22694;51.040;3.684;2022-12-07T14:53:36;3.78;;;1.15;;
36709;SDS011;22694;51.040;3.684;2022-12-07T14:56:07;2.30;;;0.70;;
36709;SDS011;22694;51.040;3.684;2022-12-07T14:58:33;2.08;;;0.82;;
36709;SDS011;22694;51.040;3.684;2022-12-07T15:00:59;4.30;;;1.10;;
36709;SDS011;22694;51.040;3.684;2022-12-07T15:03:25;2.90;;;0.90;;
36709;SDS011;22694;51.040;3.684;2022-12-07T15:05:51;1.48;;;0.70;;
36709;SDS011;22694;51.040;3.684;2022-12-07T15:08:16;4.53;;;1.08;;
36709;SDS011;22694;51.040;3.684;2022-12-07T15:10:43;4.78;;;0.80;;
36709;SDS011;22694;51.040;3.684;2022-12-07T15:13:09;4.90;;;1.02;;
36709;SDS011;22694;51.040;3.684;2022-12-07T15:15:53;2.15;;;0.82;;
36709;SDS011;22694;51.040;3.684;2022-12-07T15:18:20;2.72;;;0.90;;
36709;SDS011;22694;51.040;3.684;2022-12-07T15:20:47;2.25;;;0.85;;
36709;SDS011;22694;51.040;3.684;2022-12-07T15:23:13;1.63;;;0.80;;
36709;SDS011;22694;51.040;3.684;2022-12-07T15:25:40;1.35;;;0.60;;
36709;SDS011;22694;51.040;3.684;2022-12-07T15:28:09;2.00;;;0.47;;
36709;SDS011;22694;51.040;3.684;2022-12-07T15:30:36;2.95;;;0.80;;
36709;SDS011;22694;51.040;3.684;2022-12-07T15:33:03;3.65;;;0.80;;
36709;SDS011;22694;51.040;3.684;2022-12-07T15:35:28;0.88;;;0.75;;
36709;SDS011;22694;51.040;3.684;2022-12-07T15:37:54;2.85;;;0.70;;
36709;SDS011;22694;51.040;3.684;2022-12-07T15:40:20;1.85;;;0.50;;
36709;SDS011;22694;51.040;3.684;2022-12-07T15:42:45;2.20;;;0.60;;
36709;SDS011;22694;51.040;3.684;2022-12-07T15:45:11;2.28;;;0.70;;
36709;SDS011;22694;51.040;3.684;2022-12-07T15:47:41;2.72;;;0.73;;
36709;SDS011;22694;51.040;3.684;2022-12-07T15:50:10;2.05;;;0.50;;
36709;SDS011;22694;51.040;3.684;2022-12-07T15:52:37;1.27;;;0.68;;
36709;SDS011;22694;51.040;3.684;2022-12-07T15:55:04;1.27;;;0.50;;
36709;SDS011;22694;51.040;3.684;2022-12-07T15:57:30;2.00;;;0.75;;
36709;SDS011;22694;51.040;3.684;2022-12-07T15:59:56;2.78;;;0.80;;
36709;SDS011;22694;51.040;3.684;2022-12-07T16:02:23;2.45;;;1.10;;
36709;SDS011;22694;51.040;3.684;2022-12-07T16:04:49;2.28;;;0.73;;
36709;SDS011;22694;51.040;3.684;2022-12-07T16:07:15;1.38;;;0.65;;
36709;SDS011;22694;51.040;3.684;2022-12-07T16:09:42;1.63;;;0.68;;
36709;SDS011;22694;51.040;3.684;2022-12-07T16:12:09;0.60;;;0.57;;
36709;SDS011;22694;51.040;3.684;2022-12-07T16:14:35;0.90;;;0.55;;
36709;SDS011;22694;51.040;3.684;2022-12-07T16:17:02;2.65;;;1.13;;
36709;SDS011;22694;51.040;3.684;2022-12-07T16:19:29;2.53;;;0.70;;
36709;SDS011;22694;51.040;3.684;2022-12-07T16:21:55;1.15;;;0.43;;
36709;SDS011;22694;51.040;3.684;2022-12-07T16:24:21;1.10;;;0.60;;
36709;SDS011;22694;51.040;3.684;2022-12-07T16:26:47;0.85;;;0.60;;
36709;SDS011;22694;51.040;3.684;2022-12-07T16:29:13;0.98;;;0.65;;
36709;SDS011;22694;51.040;3.684;2022-12-07T16:31:39;0.90;;;0.80;;
36709;SDS011;22694;51.040;3.684;2022-12-07T16:34:05;1.30;;;0.90;;
36709;SDS011;22694;51.040;3.684;2022-12-07T16:36:31;2.38;;;0.95;;
36709;SDS011;22694;51.040;3.684;2022-12-07T16:39:01;0.93;;;0.70;;
36709;SDS011;22694;51.040;3.684;2022-12-07T16:41:27;1.70;;;0.90;;
36709;SDS011;22694;51.040;3.684;2022-12-07T16:43:52;1.48;;;1.05;;
36709;SDS011;22694;51.040;3.684;2022-12-07T16:46:18;1.40;;;0.90;;